Springfield Branson National Airport Springfield US
ICAO: KSGF
IATA: SGF
Category: Large
Scheduled Services: Yes

Elevation: 1268 ft
TransAlt. 18000 ft.

Airport Communications:
APP/DEP:124.95
ATIS:119.05
CLNC DEL:123.675
GND:121.9
ARNG OPS:134.95
COLUMBIA RDO:122.55
TWR:119.9
UNICOM:122.95

KSGF Zoom In..

Runways:

(A) RW 02 length 7003 ft width 150 ft
ILS 109.90 / hdg 19

(B) RW 14 length 8000 ft width 150 ft
ILS 109.70 / hdg 139

(C) RW 20 length 7003 ft width 150 ft
---- / hdg 199

(D) RW 32 length 8000 ft width 150 ft
---- / hdg 319

Location; KSGF
Day. 19 / Time. 01.52 Zulu
* Altimeter: 30.00
* Temperature: 07° c. 44.6°f.
* Wind from: 260° Speed 05 kn.
Dewpoint: 03° c.
Visibility: 10 Statute Miles.
Clouds: Few 8000 ft.

KSGF 190152Z 26005KT 10SM FEW080 07/03 A3000 RMK AO2 SLP161 T00720028

Going to: --> -->


Wind From 260°
Speed 05 kn.

 
 
jpsmedia worldairports.se 2021   terms of use